createdAt,value
2022-10-11T00:00:27.374Z,100308.22
2022-10-11T00:03:06.582Z,100313.63
2022-10-11T00:05:45.462Z,100306.56
2022-10-11T00:08:23.718Z,100309.69
2022-10-11T00:11:06.085Z,100314.50
2022-10-11T00:13:44.914Z,100312.84
2022-10-11T00:16:23.133Z,100311.19
2022-10-11T00:19:01.355Z,100312.25
2022-10-11T00:21:39.562Z,100315.13
2022-10-11T00:24:17.898Z,100316.41
2022-10-11T00:26:55.987Z,100320.16
2022-10-11T00:29:34.291Z,100318.75
2022-10-11T00:32:25.102Z,100326.81
2022-10-11T00:35:06.208Z,100321.84
2022-10-11T00:37:43.903Z,100324.78
2022-10-11T00:40:22.711Z,100332.25
2022-10-11T00:43:00.355Z,100336.81
2022-10-11T00:45:38.402Z,100331.63
2022-10-11T00:48:27.552Z,100325.66
2022-10-11T00:51:20.583Z,100320.72
2022-10-11T00:54:01.730Z,100321.53
2022-10-11T00:57:00.639Z,100319.03
2022-10-11T00:59:44.260Z,100324.03
2022-10-11T01:02:24.709Z,100321.34
2022-10-11T01:05:28.205Z,100333.38
2022-10-11T01:08:04.039Z,100336.50
2022-10-11T01:10:41.756Z,100337.56
2022-10-11T01:13:56.408Z,100345.47
2022-10-11T01:16:55.282Z,100348.16
2022-10-11T01:20:26.646Z,100352.31
2022-10-11T01:23:38.900Z,100361.44
2022-10-11T01:27:18.280Z,100354.41
2022-10-11T01:30:18.917Z,100356.06
2022-10-11T01:33:06.196Z,100361.44
2022-10-11T01:36:27.555Z,100368.47
2022-10-11T01:39:22.273Z,100363.94
2022-10-11T01:42:03.686Z,100368.47
2022-10-11T01:44:45.810Z,100365.78
2022-10-11T01:47:35.714Z,100368.47
2022-10-11T01:50:34.976Z,100366.22
2022-10-11T01:54:08.771Z,100360.00
2022-10-11T01:57:24.787Z,100365.63
2022-10-11T02:00:10.864Z,100360.22
2022-10-11T02:03:09.084Z,100358.78
2022-10-11T02:06:01.125Z,100365.22
2022-10-11T02:08:51.746Z,100365.44
2022-10-11T02:11:32.922Z,100365.53
2022-10-11T02:14:25.190Z,100358.75
2022-10-11T02:17:18.727Z,100365.81
2022-10-11T02:19:59.244Z,100362.53
2022-10-11T02:22:40.969Z,100366.47
2022-10-11T02:25:25.119Z,100366.88
2022-10-11T02:28:14.221Z,100367.34
2022-10-11T02:30:54.972Z,100378.50
2022-10-11T02:33:58.710Z,100372.97
2022-10-11T02:36:59.156Z,100374.44
2022-10-11T02:39:55.453Z,100377.31
2022-10-11T02:42:49.879Z,100382.09
2022-10-11T02:45:40.964Z,100370.69
2022-10-11T02:48:18.741Z,100374.41
2022-10-11T02:50:59.714Z,100380.25
2022-10-11T02:53:37.951Z,100382.31
2022-10-11T02:56:16.163Z,100377.34
2022-10-11T02:58:54.422Z,100389.34
2022-10-11T03:01:32.679Z,100386.06
2022-10-11T03:04:10.906Z,100381.94
2022-10-11T03:06:49.081Z,100384.84
2022-10-11T03:09:27.289Z,100380.91
2022-10-11T03:12:05.646Z,100386.50
2022-10-11T03:14:43.767Z,100382.38
2022-10-11T03:17:36.111Z,100391.69
2022-10-11T03:20:14.590Z,100393.97
2022-10-11T03:22:52.860Z,100392.75
2022-10-11T03:25:31.131Z,100397.72
2022-10-11T03:28:09.395Z,100404.34
2022-10-11T03:30:51.873Z,100404.75
2022-10-11T03:33:30.586Z,100391.53
2022-10-11T03:36:09.444Z,100402.50
2022-10-11T03:38:46.970Z,100398.16
2022-10-11T03:41:25.195Z,100407.28
2022-10-11T03:44:04.076Z,100402.94
2022-10-11T03:46:41.707Z,100409.31
2022-10-11T03:49:19.886Z,100406.03
2022-10-11T03:51:58.454Z,100402.50
2022-10-11T03:54:36.324Z,100407.06
2022-10-11T03:57:14.929Z,100408.09
2022-10-11T03:59:52.883Z,100409.13
2022-10-11T04:02:32.214Z,100412.66
2022-10-11T04:05:12.620Z,100412.66
2022-10-11T04:07:50.895Z,100416.38
2022-10-11T04:10:28.940Z,100418.22
2022-10-11T04:13:07.420Z,100420.09
2022-10-11T04:15:45.290Z,100413.88
2022-10-11T04:18:23.595Z,100418.66
2022-10-11T04:21:01.839Z,100419.69
2022-10-11T04:23:40.005Z,100420.72
2022-10-11T04:26:18.224Z,100417.41
2022-10-11T04:28:57.885Z,100423.22
2022-10-11T04:31:36.212Z,100419.91
2022-10-11T04:34:14.441Z,100425.47
2022-10-11T04:36:52.711Z,100441.19
2022-10-11T04:39:30.889Z,100444.09
2022-10-11T04:42:09.138Z,100447.19
2022-10-11T04:44:47.528Z,100456.50
2022-10-11T04:47:25.732Z,100454.22
2022-10-11T04:50:04.555Z,100450.91
2022-10-11T04:52:42.189Z,100450.31
2022-10-11T04:55:20.378Z,100461.44
2022-10-11T04:57:58.434Z,100458.16
2022-10-11T05:00:36.710Z,100465.59
2022-10-11T05:03:14.931Z,100461.44
2022-10-11T05:05:53.523Z,100465.97
2022-10-11T05:08:31.470Z,100468.06
2022-10-11T05:11:15.801Z,100468.28
2022-10-11T05:13:56.603Z,100473.00
2022-10-11T05:16:34.105Z,100476.94
2022-10-11T05:19:12.345Z,100481.66
2022-10-11T05:21:50.534Z,100478.34
2022-10-11T05:24:28.702Z,100478.53
2022-10-11T05:27:06.906Z,100488.22
2022-10-11T05:29:45.696Z,100486.19
2022-10-11T05:32:26.710Z,100487.81
2022-10-11T05:35:07.048Z,100493.97
2022-10-11T05:37:57.130Z,100492.94
2022-10-11T05:40:34.764Z,100495.59
2022-10-11T05:43:12.962Z,100491.00
2022-10-11T05:45:51.098Z,100500.91
2022-10-11T05:48:29.285Z,100500.88
2022-10-11T05:51:10.366Z,100508.69
2022-10-11T05:53:49.207Z,100512.97
2022-10-11T05:56:27.219Z,100518.97
2022-10-11T05:59:06.154Z,100522.03
2022-10-11T06:01:56.098Z,100523.25
2022-10-11T06:04:37.189Z,100529.66
2022-10-11T06:07:15.024Z,100537.06
2022-10-11T06:09:53.261Z,100546.13
2022-10-11T06:12:31.571Z,100546.53
2022-10-11T06:15:29.464Z,100551.91
2022-10-11T06:18:26.660Z,100548.59
2022-10-11T06:21:22.597Z,100559.50
2022-10-11T06:24:18.662Z,100552.69
2022-10-11T06:27:13.681Z,100564.66
2022-10-11T06:30:10.095Z,100565.84
2022-10-11T06:33:10.532Z,100568.13
2022-10-11T06:36:07.080Z,100576.53
2022-10-11T06:39:08.651Z,100580.44
2022-10-11T06:42:04.020Z,100586.84
2022-10-11T06:45:14.419Z,100594.88
2022-10-11T06:48:09.971Z,100593.41
2022-10-11T06:51:17.506Z,100600.00
2022-10-11T06:54:12.045Z,100602.06
2022-10-11T06:57:06.241Z,100602.22
2022-10-11T07:00:01.253Z,100597.69
2022-10-11T07:02:53.491Z,100590.66
2022-10-11T07:06:30.881Z,100598.16
2022-10-11T07:09:22.665Z,100607.00
2022-10-11T07:12:18.074Z,100602.28
2022-10-11T07:15:15.283Z,100612.00
2022-10-11T07:18:10.545Z,100621.31
2022-10-11T07:21:16.102Z,100624.47
2022-10-11T07:24:11.743Z,100622.19
2022-10-11T07:27:06.647Z,100628.84
2022-10-11T07:29:58.082Z,100627.63
2022-10-11T07:33:02.665Z,100632.41
2022-10-11T07:35:58.139Z,100634.09
2022-10-11T07:38:54.085Z,100636.19
2022-10-11T07:41:51.935Z,100636.00
2022-10-11T07:44:47.086Z,100639.31
2022-10-11T07:47:46.317Z,100637.28
2022-10-11T07:51:08.271Z,100637.69
2022-10-11T07:54:14.893Z,100645.19
2022-10-11T07:57:06.882Z,100644.16
2022-10-11T07:59:59.508Z,100642.28
2022-10-11T08:03:07.797Z,100649.31
2022-10-11T08:06:13.316Z,100651.63
2022-10-11T08:09:10.449Z,100647.91
2022-10-11T08:12:05.012Z,100655.13
2022-10-11T08:15:02.100Z,100658.66
2022-10-11T08:18:05.694Z,100661.13
2022-10-11T08:21:15.231Z,100662.78
2022-10-11T08:24:25.212Z,100669.66
2022-10-11T08:27:17.023Z,100667.78
2022-10-11T08:30:13.623Z,100668.00
2022-10-11T08:33:23.162Z,100671.56
2022-10-11T08:36:24.459Z,100681.38
2022-10-11T08:39:18.971Z,100673.97
2022-10-11T08:42:43.180Z,100673.81
2022-10-11T08:45:46.476Z,100673.25
2022-10-11T08:48:44.748Z,100671.06
2022-10-11T08:51:48.054Z,100679.81
2022-10-11T08:54:51.401Z,100675.09
2022-10-11T08:57:57.253Z,100672.84
2022-10-11T09:00:55.540Z,100665.63
2022-10-11T09:03:44.354Z,100672.28
2022-10-11T09:06:57.171Z,100665.47
2022-10-11T09:10:40.296Z,100675.44
2022-10-11T09:13:56.808Z,100672.94
2022-10-11T09:17:24.907Z,100668.63
2022-10-11T09:21:01.007Z,100669.69
2022-10-11T09:23:51.599Z,100670.50
2022-10-11T09:26:56.637Z,100666.81
2022-10-11T09:30:01.336Z,100661.88
2022-10-11T09:32:46.583Z,100663.09
2022-10-11T09:35:21.476Z,100664.19
2022-10-11T09:38:21.669Z,100660.88
2022-10-11T09:41:05.957Z,100660.28
2022-10-11T09:43:33.059Z,100661.50
2022-10-11T09:46:00.040Z,100662.94
2022-10-11T09:48:40.110Z,100663.53
2022-10-11T09:51:14.643Z,100668.72
2022-10-11T09:53:54.399Z,100658.34
2022-10-11T09:56:24.162Z,100662.22
2022-10-11T09:59:30.025Z,100665.94
2022-10-11T10:02:12.940Z,100666.31
2022-10-11T10:05:20.027Z,100663.78
2022-10-11T10:08:26.836Z,100659.19
2022-10-11T10:10:59.378Z,100654.59
2022-10-11T10:13:49.688Z,100655.63
2022-10-11T10:16:43.155Z,100658.06
2022-10-11T10:19:25.146Z,100661.56
2022-10-11T10:21:55.448Z,100655.50
2022-10-11T10:24:28.116Z,100656.28
2022-10-11T10:27:14.177Z,100650.25
2022-10-11T10:29:41.564Z,100652.91
2022-10-11T10:32:27.823Z,100652.22
2022-10-11T10:35:17.393Z,100646.31
2022-10-11T10:38:05.249Z,100645.84
2022-10-11T10:40:50.870Z,100647.00
2022-10-11T10:43:24.358Z,100647.94
2022-10-11T10:46:12.191Z,100642.00
2022-10-11T10:52:20.829Z,100646.41
2022-10-11T10:55:16.513Z,100640.25
2022-10-11T10:58:05.423Z,100647.63
2022-10-11T11:00:49.954Z,100638.53
2022-10-11T11:03:36.995Z,100641.53
2022-10-11T11:06:15.848Z,100635.63
2022-10-11T11:09:54.639Z,100640.84
2022-10-11T11:12:53.435Z,100630.00
2022-10-11T11:15:43.275Z,100628.38
2022-10-11T11:18:44.195Z,100630.00
2022-10-11T11:21:41.540Z,100622.50
2022-10-11T11:24:32.151Z,100621.13
2022-10-11T11:27:40.969Z,100624.41
2022-10-11T11:30:16.444Z,100621.03
2022-10-11T11:32:59.036Z,100632.00
2022-10-11T11:35:45.860Z,100629.66
2022-10-11T11:38:43.052Z,100628.63
2022-10-11T11:41:28.410Z,100615.53
2022-10-11T11:44:09.379Z,100615.91
2022-10-11T11:46:46.001Z,100609.66
2022-10-11T11:49:22.949Z,100613.69
2022-10-11T11:51:51.230Z,100615.69
2022-10-11T11:54:47.462Z,100606.84
2022-10-11T11:57:52.213Z,100598.88
2022-10-11T12:00:21.176Z,100599.25
2022-10-11T12:02:59.476Z,100600.16
2022-10-11T12:05:32.442Z,100596.53
2022-10-11T12:08:06.026Z,100593.94
2022-10-11T12:10:55.586Z,100592.47
2022-10-11T12:13:37.890Z,100595.88
2022-10-11T12:16:13.408Z,100591.16
2022-10-11T12:18:57.152Z,100588.59
2022-10-11T12:21:36.271Z,100591.75
2022-10-11T12:24:15.109Z,100577.94
2022-10-11T12:26:58.485Z,100586.53
2022-10-11T12:29:59.459Z,100580.78
2022-10-11T12:32:35.588Z,100587.03
2022-10-11T12:35:53.914Z,100575.91
2022-10-11T12:38:26.713Z,100577.31
2022-10-11T12:41:13.287Z,100571.75
2022-10-11T12:43:49.397Z,100567.00
2022-10-11T12:46:28.378Z,100563.94
2022-10-11T12:49:32.319Z,100562.31
2022-10-11T12:52:17.484Z,100559.13
2022-10-11T12:55:23.189Z,100558.06
2022-10-11T12:58:27.643Z,100557.63
2022-10-11T13:00:57.756Z,100556.44
2022-10-11T13:03:32.553Z,100557.50
2022-10-11T13:06:09.875Z,100552.31
2022-10-11T13:08:43.090Z,100562.94
2022-10-11T13:11:17.551Z,100566.34
2022-10-11T13:13:59.101Z,100563.97
2022-10-11T13:16:30.128Z,100562.78
2022-10-11T13:19:00.060Z,100557.47
2022-10-11T13:21:29.211Z,100551.66
2022-10-11T13:24:18.783Z,100551.53
2022-10-11T13:26:50.233Z,100553.97
2022-10-11T13:29:29.147Z,100557.63
2022-10-11T13:31:56.371Z,100558.56
2022-10-11T13:34:24.313Z,100552.16
2022-10-11T13:36:58.628Z,100553.03
2022-10-11T13:39:38.800Z,100550.78
2022-10-11T13:42:13.491Z,100545.41
2022-10-11T13:44:42.364Z,100554.72
2022-10-11T13:47:16.999Z,100542.88
2022-10-11T13:50:00.364Z,100548.88
2022-10-11T13:52:27.341Z,100545.09
2022-10-11T13:55:04.533Z,100541.56
2022-10-11T13:57:49.407Z,100538.28
2022-10-11T14:00:17.380Z,100531.19
2022-10-11T14:02:56.593Z,100534.06
2022-10-11T14:05:43.124Z,100532.19
2022-10-11T14:08:30.092Z,100538.44
2022-10-11T14:11:01.300Z,100538.69
2022-10-11T14:13:36.687Z,100543.88
2022-10-11T14:16:05.516Z,100533.72
2022-10-11T14:18:48.962Z,100541.31
2022-10-11T14:21:34.579Z,100530.44
2022-10-11T14:24:02.851Z,100542.34
2022-10-11T14:26:38.302Z,100535.75
2022-10-11T14:29:29.011Z,100536.22
2022-10-11T14:32:10.805Z,100536.22
2022-10-11T14:34:38.342Z,100539.69
2022-10-11T14:37:05.379Z,100539.34
2022-10-11T14:39:33.183Z,100532.78
2022-10-11T14:42:00.194Z,100528.19
2022-10-11T14:44:27.164Z,100535.16
2022-10-11T14:46:54.920Z,100530.69
2022-10-11T14:49:42.031Z,100531.06
2022-10-11T14:52:13.085Z,100527.66
2022-10-11T14:54:40.335Z,100532.41
2022-10-11T14:57:12.470Z,100531.47
2022-10-11T14:59:39.611Z,100526.66
2022-10-11T15:02:08.603Z,100531.97
2022-10-11T15:04:35.605Z,100536.72
2022-10-11T15:07:03.716Z,100534.38
2022-10-11T15:09:31.261Z,100530.72
2022-10-11T15:11:58.416Z,100532.47
2022-10-11T15:14:26.019Z,100537.78
2022-10-11T15:16:53.428Z,100534.31
2022-10-11T15:19:24.939Z,100536.91
2022-10-11T15:21:52.543Z,100531.16
2022-10-11T15:24:19.914Z,100526.69
2022-10-11T15:26:48.137Z,100528.69
2022-10-11T15:29:17.877Z,100528.53
2022-10-11T15:31:46.096Z,100523.72
2022-10-11T15:34:13.138Z,100532.16
2022-10-11T15:36:40.237Z,100533.22
2022-10-11T15:39:30.483Z,100525.50
2022-10-11T15:41:58.011Z,100529.84
2022-10-11T15:44:24.950Z,100527.97
2022-10-11T15:46:52.074Z,100531.34
2022-10-11T15:49:19.069Z,100531.69
2022-10-11T15:51:46.109Z,100520.31
2022-10-11T15:54:13.046Z,100527.44
2022-10-11T15:56:40.007Z,100529.41
2022-10-11T15:59:06.984Z,100539.84
2022-10-11T16:01:33.941Z,100534.94
2022-10-11T16:04:01.013Z,100533.78
2022-10-11T16:06:28.092Z,100531.34
2022-10-11T16:08:55.042Z,100531.41
2022-10-11T16:11:22.058Z,100531.69
2022-10-11T16:13:49.485Z,100533.63
2022-10-11T16:16:16.581Z,100529.09
2022-10-11T16:18:43.535Z,100526.09
2022-10-11T16:21:14.240Z,100532.63
2022-10-11T16:23:41.446Z,100530.16
2022-10-11T16:26:13.601Z,100537.72
2022-10-11T16:28:41.836Z,100534.03
2022-10-11T16:31:13.158Z,100536.56
2022-10-11T16:33:45.665Z,100546.16
2022-10-11T16:36:32.803Z,100539.53
2022-10-11T16:39:03.336Z,100544.56
2022-10-11T16:41:30.412Z,100535.44
2022-10-11T16:43:57.362Z,100536.94
2022-10-11T16:46:24.796Z,100532.19
2022-10-11T16:48:58.371Z,100542.59
2022-10-11T16:51:25.585Z,100528.09
2022-10-11T16:53:53.303Z,100539.53
2022-10-11T16:56:22.489Z,100546.38
2022-10-11T16:58:49.566Z,100544.53
2022-10-11T17:01:16.707Z,100542.47
2022-10-11T17:03:43.738Z,100543.16
2022-10-11T17:06:10.750Z,100539.22
2022-10-11T17:08:37.679Z,100539.03
2022-10-11T17:11:04.975Z,100537.81
2022-10-11T17:13:32.243Z,100539.50
2022-10-11T17:15:59.412Z,100537.03
2022-10-11T17:18:26.486Z,100542.84
2022-10-11T17:21:08.899Z,100539.94
2022-10-11T17:23:36.757Z,100539.34
2022-10-11T17:26:11.171Z,100544.31
2022-10-11T17:28:38.896Z,100540.63
2022-10-11T17:31:07.488Z,100542.53
2022-10-11T17:33:34.815Z,100543.56
2022-10-11T17:36:02.167Z,100537.56
2022-10-11T17:38:29.288Z,100542.16
2022-10-11T17:41:05.534Z,100538.03
2022-10-11T17:43:32.649Z,100535.16
2022-10-11T17:46:05.108Z,100530.59
2022-10-11T17:48:36.485Z,100525.41
2022-10-11T17:51:16.629Z,100531.84
2022-10-11T17:53:45.202Z,100525.19
2022-10-11T17:56:16.159Z,100535.56
2022-10-11T17:58:43.752Z,100529.97
2022-10-11T18:01:15.770Z,100539.50
2022-10-11T18:03:43.716Z,100531.41
2022-10-11T18:06:13.159Z,100532.88
2022-10-11T18:08:41.096Z,100538.44
2022-10-11T18:11:16.328Z,100542.59
2022-10-11T18:13:46.482Z,100539.28
2022-10-11T18:16:16.487Z,100538.88
2022-10-11T18:18:44.316Z,100538.44
2022-10-11T18:21:11.619Z,100537.22
2022-10-11T18:23:39.159Z,100538.44
2022-10-11T18:26:15.787Z,100533.47
2022-10-11T18:28:44.147Z,100528.31
2022-10-11T18:31:19.493Z,100533.03
2022-10-11T18:33:47.719Z,100535.72
2022-10-11T18:36:17.536Z,100538.84
2022-10-11T18:38:49.323Z,100540.91
2022-10-11T18:41:19.113Z,100534.06
2022-10-11T18:43:56.274Z,100539.88
2022-10-11T18:46:27.621Z,100541.72
2022-10-11T18:48:57.162Z,100536.34
2022-10-11T18:51:32.283Z,100546.47
2022-10-11T18:53:59.953Z,100541.31
2022-10-11T18:56:29.111Z,100542.53
2022-10-11T18:58:57.770Z,100540.91
2022-10-11T19:01:44.406Z,100545.63
2022-10-11T19:04:15.840Z,100548.31
2022-10-11T19:06:47.766Z,100540.25
2022-10-11T19:09:22.280Z,100541.28
2022-10-11T19:11:53.524Z,100540.25
2022-10-11T19:14:28.256Z,100542.94
2022-10-11T19:16:56.578Z,100541.72
2022-10-11T19:19:27.688Z,100543.59
2022-10-11T19:21:55.257Z,100538.22
2022-10-11T19:24:26.511Z,100545.63
2022-10-11T19:26:58.552Z,100542.75
2022-10-11T19:29:30.402Z,100530.31
2022-10-11T19:31:59.701Z,100546.28
2022-10-11T19:34:28.610Z,100543.59
2022-10-11T19:36:56.495Z,100541.72
2022-10-11T19:39:26.167Z,100536.34
2022-10-11T19:41:53.237Z,100541.72
2022-10-11T19:44:20.769Z,100539.84
2022-10-11T19:46:52.323Z,100538.22
2022-10-11T19:49:24.704Z,100546.28
2022-10-11T19:51:53.802Z,100542.94
2022-10-11T19:54:21.027Z,100545.44
2022-10-11T19:56:48.202Z,100538.59
2022-10-11T19:59:15.922Z,100538.81
2022-10-11T20:01:45.518Z,100536.94
2022-10-11T20:04:33.517Z,100542.53
2022-10-11T20:07:02.311Z,100549.13
2022-10-11T20:09:30.608Z,100549.34
2022-10-11T20:11:58.688Z,100544.16
2022-10-11T20:14:25.999Z,100550.56
2022-10-11T20:16:53.234Z,100551.63
2022-10-11T20:19:23.896Z,100551.63
2022-10-11T20:21:54.940Z,100552.00
2022-10-11T20:24:21.995Z,100553.66
2022-10-11T20:26:51.551Z,100555.72
2022-10-11T20:29:18.493Z,100555.94
2022-10-11T20:31:45.455Z,100554.47
2022-10-11T20:34:13.241Z,100556.53
2022-10-11T20:36:40.299Z,100555.91
2022-10-11T20:39:07.859Z,100557.94
2022-10-11T20:41:39.686Z,100556.47
2022-10-11T20:44:07.998Z,100558.34
2022-10-11T20:46:39.097Z,100556.06
2022-10-11T20:49:09.615Z,100551.69
2022-10-11T20:51:41.355Z,100553.97
2022-10-11T20:54:09.058Z,100551.50
2022-10-11T20:56:36.133Z,100560.59
2022-10-11T20:59:03.539Z,100556.41
2022-10-11T21:01:35.152Z,100562.22
2022-10-11T21:04:02.821Z,100560.72
2022-10-11T21:06:31.789Z,100552.25
2022-10-11T21:09:00.230Z,100551.00
2022-10-11T21:11:29.202Z,100548.06
2022-10-11T21:14:04.964Z,100542.28
2022-10-11T21:16:33.609Z,100548.88
2022-10-11T21:19:02.482Z,100540.19
2022-10-11T21:21:30.300Z,100538.94
2022-10-11T21:24:01.697Z,100544.88
2022-10-11T21:26:29.928Z,100539.72
2022-10-11T21:28:59.404Z,100550.03
2022-10-11T21:31:31.283Z,100547.75
2022-10-11T21:34:01.785Z,100544.59
2022-10-11T21:36:28.748Z,100548.53
2022-10-11T21:38:56.616Z,100548.91
2022-10-11T21:41:25.777Z,100541.25
2022-10-11T21:43:53.252Z,100546.84
2022-10-11T21:46:22.755Z,100555.06
2022-10-11T21:48:50.348Z,100558.16
2022-10-11T21:51:29.405Z,100551.50
2022-10-11T21:54:00.143Z,100546.13
2022-10-11T21:56:28.486Z,100561.63
2022-10-11T21:58:55.895Z,100544.88
2022-10-11T22:01:23.279Z,100539.53
2022-10-11T22:03:50.274Z,100536.19
2022-10-11T22:06:17.451Z,100538.88
2022-10-11T22:08:44.642Z,100534.53
2022-10-11T22:11:12.412Z,100538.25
2022-10-11T22:13:39.433Z,100534.94
2022-10-11T22:16:09.464Z,100530.59
2022-10-11T22:18:36.947Z,100523.38
2022-10-11T22:21:17.499Z,100528.75
2022-10-11T22:23:47.372Z,100522.34
2022-10-11T22:26:25.303Z,100506.44
2022-10-11T22:28:53.395Z,100513.47
2022-10-11T22:31:21.437Z,100507.28
2022-10-11T22:33:49.376Z,100513.66
2022-10-11T22:36:17.143Z,100505.63
2022-10-11T22:38:44.937Z,100495.72
2022-10-11T22:41:12.687Z,100506.44
2022-10-11T22:43:40.137Z,100505.41
2022-10-11T22:46:08.404Z,100497.38
2022-10-11T22:48:35.977Z,100503.75
2022-10-11T22:51:03.318Z,100494.88
2022-10-11T22:53:30.668Z,100500.25
2022-10-11T22:55:57.906Z,100509.31
2022-10-11T22:58:24.918Z,100505.78
2022-10-11T23:00:51.958Z,100505.16
2022-10-11T23:03:19.419Z,100502.50
2022-10-11T23:05:57.535Z,100510.94
2022-10-11T23:08:24.859Z,100501.03
2022-10-11T23:10:51.972Z,100497.53
2022-10-11T23:13:19.398Z,100496.88
2022-10-11T23:15:46.520Z,100499.75
2022-10-11T23:18:15.362Z,100496.66
2022-10-11T23:20:42.308Z,100497.84
2022-10-11T23:23:09.243Z,100496.41
2022-10-11T23:25:36.187Z,100493.06
2022-10-11T23:28:03.133Z,100491.81
2022-10-11T23:30:30.781Z,100490.16
2022-10-11T23:32:57.815Z,100498.38
2022-10-11T23:35:25.159Z,100492.19
2022-10-11T23:37:54.232Z,100493.41
2022-10-11T23:40:21.369Z,100500.63
2022-10-11T23:42:48.322Z,100499.97
2022-10-11T23:45:15.444Z,100505.34
2022-10-11T23:47:42.401Z,100501.19
2022-10-11T23:50:09.540Z,100504.06
2022-10-11T23:52:36.618Z,100500.75
2022-10-11T23:55:04.209Z,100505.47
2022-10-11T23:57:31.224Z,100497.00
2022-10-11T23:59:58.146Z,100507.25
